sensor_id;sensor_type;location;lat;lon;timestamp;P1;durP1;ratioP1;P2;durP2;ratioP2
77287;SDS011;66345;42.694;23.346;2024-03-02T00:01:11;29.63;;;12.70;;
77287;SDS011;66345;42.694;23.346;2024-03-02T00:03:38;28.37;;;12.40;;
77287;SDS011;66345;42.694;23.346;2024-03-02T00:06:03;25.70;;;11.27;;
77287;SDS011;66345;42.694;23.346;2024-03-02T00:08:29;24.38;;;11.07;;
77287;SDS011;66345;42.694;23.346;2024-03-02T00:10:58;26.23;;;12.20;;
77287;SDS011;66345;42.694;23.346;2024-03-02T00:13:25;26.40;;;11.53;;
77287;SDS011;66345;42.694;23.346;2024-03-02T00:15:54;22.83;;;10.40;;
77287;SDS011;66345;42.694;23.346;2024-03-02T00:18:25;27.25;;;12.00;;
77287;SDS011;66345;42.694;23.346;2024-03-02T00:20:56;25.60;;;10.60;;
77287;SDS011;66345;42.694;23.346;2024-03-02T00:23:22;26.20;;;11.88;;
77287;SDS011;66345;42.694;23.346;2024-03-02T00:25:55;25.93;;;11.73;;
77287;SDS011;66345;42.694;23.346;2024-03-02T00:28:34;27.33;;;11.05;;
77287;SDS011;66345;42.694;23.346;2024-03-02T00:33:35;24.08;;;10.95;;
77287;SDS011;66345;42.694;23.346;2024-03-02T00:36:05;26.83;;;12.65;;
77287;SDS011;66345;42.694;23.346;2024-03-02T00:38:32;25.83;;;11.83;;
77287;SDS011;66345;42.694;23.346;2024-03-02T00:40:59;26.30;;;11.80;;
77287;SDS011;66345;42.694;23.346;2024-03-02T00:46:00;23.38;;;10.38;;
77287;SDS011;66345;42.694;23.346;2024-03-02T00:48:26;26.93;;;11.23;;
77287;SDS011;66345;42.694;23.346;2024-03-02T00:50:54;28.13;;;12.77;;
77287;SDS011;66345;42.694;23.346;2024-03-02T00:53:21;24.93;;;11.00;;
77287;SDS011;66345;42.694;23.346;2024-03-02T00:55:49;22.50;;;9.80;;
77287;SDS011;66345;42.694;23.346;2024-03-02T00:58:15;24.33;;;11.48;;
77287;SDS011;66345;42.694;23.346;2024-03-02T01:00:41;22.63;;;10.27;;
77287;SDS011;66345;42.694;23.346;2024-03-02T01:03:06;24.23;;;11.45;;
77287;SDS011;66345;42.694;23.346;2024-03-02T01:05:33;21.67;;;9.93;;
77287;SDS011;66345;42.694;23.346;2024-03-02T01:07:58;21.88;;;10.15;;
77287;SDS011;66345;42.694;23.346;2024-03-02T01:10:24;23.63;;;11.20;;
77287;SDS011;66345;42.694;23.346;2024-03-02T01:12:51;23.70;;;10.98;;
77287;SDS011;66345;42.694;23.346;2024-03-02T01:15:16;23.17;;;9.80;;
77287;SDS011;66345;42.694;23.346;2024-03-02T01:17:42;24.60;;;10.33;;
77287;SDS011;66345;42.694;23.346;2024-03-02T01:20:08;23.25;;;10.48;;
77287;SDS011;66345;42.694;23.346;2024-03-02T01:22:34;24.17;;;10.03;;
77287;SDS011;66345;42.694;23.346;2024-03-02T01:25:01;26.27;;;11.35;;
77287;SDS011;66345;42.694;23.346;2024-03-02T01:27:27;26.67;;;11.45;;
77287;SDS011;66345;42.694;23.346;2024-03-02T01:29:53;25.02;;;12.07;;
77287;SDS011;66345;42.694;23.346;2024-03-02T01:32:19;29.15;;;12.95;;
77287;SDS011;66345;42.694;23.346;2024-03-02T01:34:45;26.50;;;12.53;;
77287;SDS011;66345;42.694;23.346;2024-03-02T01:37:11;25.70;;;11.90;;
77287;SDS011;66345;42.694;23.346;2024-03-02T01:39:36;27.53;;;12.93;;
77287;SDS011;66345;42.694;23.346;2024-03-02T01:42:02;28.23;;;12.77;;
77287;SDS011;66345;42.694;23.346;2024-03-02T01:44:27;31.05;;;13.48;;
77287;SDS011;66345;42.694;23.346;2024-03-02T01:46:53;30.73;;;13.43;;
77287;SDS011;66345;42.694;23.346;2024-03-02T01:49:19;29.07;;;13.27;;
77287;SDS011;66345;42.694;23.346;2024-03-02T01:51:44;28.02;;;12.73;;
77287;SDS011;66345;42.694;23.346;2024-03-02T01:54:10;30.20;;;13.07;;
77287;SDS011;66345;42.694;23.346;2024-03-02T01:56:35;27.80;;;12.57;;
77287;SDS011;66345;42.694;23.346;2024-03-02T01:59:01;27.13;;;11.93;;
77287;SDS011;66345;42.694;23.346;2024-03-02T02:01:27;31.40;;;12.10;;
77287;SDS011;66345;42.694;23.346;2024-03-02T02:03:52;25.10;;;11.85;;
77287;SDS011;66345;42.694;23.346;2024-03-02T02:06:18;25.33;;;12.80;;
77287;SDS011;66345;42.694;23.346;2024-03-02T02:08:43;29.60;;;12.40;;
77287;SDS011;66345;42.694;23.346;2024-03-02T02:11:10;30.50;;;12.50;;
77287;SDS011;66345;42.694;23.346;2024-03-02T02:13:36;30.02;;;12.48;;
77287;SDS011;66345;42.694;23.346;2024-03-02T02:16:07;32.83;;;13.07;;
77287;SDS011;66345;42.694;23.346;2024-03-02T02:18:34;33.13;;;13.63;;
77287;SDS011;66345;42.694;23.346;2024-03-02T02:21:01;28.48;;;13.60;;
77287;SDS011;66345;42.694;23.346;2024-03-02T02:23:27;27.13;;;12.07;;
77287;SDS011;66345;42.694;23.346;2024-03-02T02:25:52;28.03;;;12.97;;
77287;SDS011;66345;42.694;23.346;2024-03-02T02:28:18;27.13;;;12.47;;
77287;SDS011;66345;42.694;23.346;2024-03-02T02:30:44;33.10;;;13.63;;
77287;SDS011;66345;42.694;23.346;2024-03-02T02:33:09;32.70;;;13.43;;
77287;SDS011;66345;42.694;23.346;2024-03-02T02:35:35;30.88;;;12.38;;
77287;SDS011;66345;42.694;23.346;2024-03-02T02:38:00;30.48;;;14.57;;
77287;SDS011;66345;42.694;23.346;2024-03-02T02:40:27;29.77;;;13.73;;
77287;SDS011;66345;42.694;23.346;2024-03-02T02:42:55;30.50;;;13.20;;
77287;SDS011;66345;42.694;23.346;2024-03-02T02:45:21;31.05;;;13.30;;
77287;SDS011;66345;42.694;23.346;2024-03-02T02:47:47;31.70;;;14.20;;
77287;SDS011;66345;42.694;23.346;2024-03-02T02:50:13;32.43;;;14.23;;
77287;SDS011;66345;42.694;23.346;2024-03-02T02:52:39;30.10;;;13.20;;
77287;SDS011;66345;42.694;23.346;2024-03-02T02:55:09;30.25;;;14.25;;
77287;SDS011;66345;42.694;23.346;2024-03-02T02:57:36;35.05;;;13.70;;
77287;SDS011;66345;42.694;23.346;2024-03-02T03:00:07;31.50;;;13.82;;
77287;SDS011;66345;42.694;23.346;2024-03-02T03:02:48;38.65;;;16.35;;
77287;SDS011;66345;42.694;23.346;2024-03-02T03:05:14;54.10;;;25.73;;
77287;SDS011;66345;42.694;23.346;2024-03-02T03:07:40;53.65;;;25.40;;
77287;SDS011;66345;42.694;23.346;2024-03-02T03:10:07;56.30;;;27.60;;
77287;SDS011;66345;42.694;23.346;2024-03-02T03:12:33;58.05;;;27.73;;
77287;SDS011;66345;42.694;23.346;2024-03-02T03:15:02;56.97;;;28.85;;
77287;SDS011;66345;42.694;23.346;2024-03-02T03:17:29;58.13;;;25.47;;
77287;SDS011;66345;42.694;23.346;2024-03-02T03:19:55;48.90;;;23.25;;
77287;SDS011;66345;42.694;23.346;2024-03-02T03:22:20;49.63;;;23.00;;
77287;SDS011;66345;42.694;23.346;2024-03-02T03:24:46;44.27;;;20.47;;
77287;SDS011;66345;42.694;23.346;2024-03-02T03:27:12;44.65;;;19.70;;
77287;SDS011;66345;42.694;23.346;2024-03-02T03:29:38;41.50;;;18.17;;
77287;SDS011;66345;42.694;23.346;2024-03-02T03:32:03;41.65;;;17.23;;
77287;SDS011;66345;42.694;23.346;2024-03-02T03:34:32;30.80;;;14.70;;
77287;SDS011;66345;42.694;23.346;2024-03-02T03:36:58;30.00;;;13.68;;
77287;SDS011;66345;42.694;23.346;2024-03-02T03:39:24;32.15;;;14.05;;
77287;SDS011;66345;42.694;23.346;2024-03-02T03:41:49;32.70;;;13.40;;
77287;SDS011;66345;42.694;23.346;2024-03-02T03:44:15;30.87;;;13.60;;
77287;SDS011;66345;42.694;23.346;2024-03-02T03:46:40;34.58;;;13.25;;
77287;SDS011;66345;42.694;23.346;2024-03-02T03:49:06;29.27;;;12.93;;
77287;SDS011;66345;42.694;23.346;2024-03-02T03:51:33;34.22;;;14.00;;
77287;SDS011;66345;42.694;23.346;2024-03-02T03:53:58;33.88;;;14.18;;
77287;SDS011;66345;42.694;23.346;2024-03-02T03:56:24;29.77;;;12.82;;
77287;SDS011;66345;42.694;23.346;2024-03-02T03:58:50;32.27;;;14.17;;
77287;SDS011;66345;42.694;23.346;2024-03-02T04:01:15;31.50;;;14.03;;
77287;SDS011;66345;42.694;23.346;2024-03-02T04:03:41;34.10;;;14.45;;
77287;SDS011;66345;42.694;23.346;2024-03-02T04:06:06;33.33;;;14.47;;
77287;SDS011;66345;42.694;23.346;2024-03-02T04:08:32;36.27;;;14.17;;
77287;SDS011;66345;42.694;23.346;2024-03-02T04:10:57;33.73;;;14.80;;
77287;SDS011;66345;42.694;23.346;2024-03-02T04:13:23;34.40;;;13.50;;
77287;SDS011;66345;42.694;23.346;2024-03-02T04:15:48;29.90;;;14.40;;
77287;SDS011;66345;42.694;23.346;2024-03-02T04:18:14;31.87;;;14.03;;
77287;SDS011;66345;42.694;23.346;2024-03-02T04:20:39;32.23;;;13.57;;
77287;SDS011;66345;42.694;23.346;2024-03-02T04:23:05;32.53;;;14.05;;
77287;SDS011;66345;42.694;23.346;2024-03-02T04:25:30;38.37;;;14.70;;
77287;SDS011;66345;42.694;23.346;2024-03-02T04:27:56;32.93;;;14.10;;
77287;SDS011;66345;42.694;23.346;2024-03-02T04:30:21;31.13;;;13.18;;
77287;SDS011;66345;42.694;23.346;2024-03-02T04:32:47;29.80;;;13.77;;
77287;SDS011;66345;42.694;23.346;2024-03-02T04:35:14;32.45;;;13.27;;
77287;SDS011;66345;42.694;23.346;2024-03-02T04:37:39;31.30;;;12.87;;
77287;SDS011;66345;42.694;23.346;2024-03-02T04:40:05;30.07;;;12.43;;
77287;SDS011;66345;42.694;23.346;2024-03-02T04:42:34;28.33;;;13.07;;
77287;SDS011;66345;42.694;23.346;2024-03-02T04:45:00;29.63;;;12.07;;
77287;SDS011;66345;42.694;23.346;2024-03-02T04:47:26;28.42;;;13.10;;
77287;SDS011;66345;42.694;23.346;2024-03-02T04:49:52;30.00;;;13.67;;
77287;SDS011;66345;42.694;23.346;2024-03-02T04:52:17;30.50;;;12.47;;
77287;SDS011;66345;42.694;23.346;2024-03-02T04:54:43;33.13;;;13.40;;
77287;SDS011;66345;42.694;23.346;2024-03-02T04:57:27;32.03;;;13.15;;
77287;SDS011;66345;42.694;23.346;2024-03-02T04:59:53;27.97;;;12.37;;
77287;SDS011;66345;42.694;23.346;2024-03-02T05:02:18;30.27;;;13.70;;
77287;SDS011;66345;42.694;23.346;2024-03-02T05:04:44;31.70;;;13.67;;
77287;SDS011;66345;42.694;23.346;2024-03-02T05:07:09;31.30;;;12.45;;
77287;SDS011;66345;42.694;23.346;2024-03-02T05:09:35;30.93;;;13.57;;
77287;SDS011;66345;42.694;23.346;2024-03-02T05:12:00;31.50;;;12.95;;
77287;SDS011;66345;42.694;23.346;2024-03-02T05:14:45;30.07;;;11.93;;
77287;SDS011;66345;42.694;23.346;2024-03-02T05:17:11;31.83;;;13.73;;
77287;SDS011;66345;42.694;23.346;2024-03-02T05:19:36;33.95;;;14.40;;
77287;SDS011;66345;42.694;23.346;2024-03-02T05:22:03;25.85;;;12.60;;
77287;SDS011;66345;42.694;23.346;2024-03-02T05:24:28;32.10;;;14.35;;
77287;SDS011;66345;42.694;23.346;2024-03-02T05:26:54;36.57;;;14.27;;
77287;SDS011;66345;42.694;23.346;2024-03-02T05:29:19;33.93;;;13.87;;
77287;SDS011;66345;42.694;23.346;2024-03-02T05:31:46;34.58;;;13.40;;
77287;SDS011;66345;42.694;23.346;2024-03-02T05:34:11;29.38;;;13.02;;
77287;SDS011;66345;42.694;23.346;2024-03-02T05:36:37;34.77;;;14.33;;
77287;SDS011;66345;42.694;23.346;2024-03-02T05:39:04;36.28;;;15.15;;
77287;SDS011;66345;42.694;23.346;2024-03-02T05:41:31;37.83;;;15.82;;
77287;SDS011;66345;42.694;23.346;2024-03-02T05:43:57;35.07;;;14.60;;
77287;SDS011;66345;42.694;23.346;2024-03-02T05:46:22;42.87;;;15.60;;
77287;SDS011;66345;42.694;23.346;2024-03-02T05:48:48;36.40;;;15.27;;
77287;SDS011;66345;42.694;23.346;2024-03-02T05:51:13;38.05;;;15.77;;
77287;SDS011;66345;42.694;23.346;2024-03-02T05:53:39;36.67;;;15.33;;
77287;SDS011;66345;42.694;23.346;2024-03-02T05:56:04;38.17;;;15.60;;
77287;SDS011;66345;42.694;23.346;2024-03-02T05:58:30;35.85;;;14.77;;
77287;SDS011;66345;42.694;23.346;2024-03-02T06:01:08;39.03;;;15.88;;
77287;SDS011;66345;42.694;23.346;2024-03-02T06:03:33;40.67;;;16.57;;
77287;SDS011;66345;42.694;23.346;2024-03-02T06:05:59;41.25;;;18.02;;
77287;SDS011;66345;42.694;23.346;2024-03-02T06:08:24;43.15;;;17.52;;
77287;SDS011;66345;42.694;23.346;2024-03-02T06:10:50;42.72;;;16.33;;
77287;SDS011;66345;42.694;23.346;2024-03-02T06:13:16;36.57;;;15.43;;
77287;SDS011;66345;42.694;23.346;2024-03-02T06:15:41;39.77;;;16.10;;
77287;SDS011;66345;42.694;23.346;2024-03-02T06:18:07;40.63;;;15.50;;
77287;SDS011;66345;42.694;23.346;2024-03-02T06:20:33;38.88;;;15.18;;
77287;SDS011;66345;42.694;23.346;2024-03-02T06:22:58;37.90;;;15.55;;
77287;SDS011;66345;42.694;23.346;2024-03-02T06:25:24;39.37;;;16.27;;
77287;SDS011;66345;42.694;23.346;2024-03-02T06:27:50;40.95;;;17.25;;
77287;SDS011;66345;42.694;23.346;2024-03-02T06:30:15;42.17;;;17.13;;
77287;SDS011;66345;42.694;23.346;2024-03-02T06:32:41;44.77;;;18.00;;
77287;SDS011;66345;42.694;23.346;2024-03-02T06:35:06;45.20;;;17.38;;
77287;SDS011;66345;42.694;23.346;2024-03-02T06:37:35;47.90;;;17.88;;
77287;SDS011;66345;42.694;23.346;2024-03-02T06:40:01;43.70;;;17.98;;
77287;SDS011;66345;42.694;23.346;2024-03-02T06:42:27;41.30;;;17.33;;
77287;SDS011;66345;42.694;23.346;2024-03-02T06:44:58;36.27;;;16.17;;
77287;SDS011;66345;42.694;23.346;2024-03-02T06:47:23;42.97;;;17.70;;
77287;SDS011;66345;42.694;23.346;2024-03-02T06:49:49;43.20;;;16.10;;
77287;SDS011;66345;42.694;23.346;2024-03-02T06:52:14;48.53;;;18.08;;
77287;SDS011;66345;42.694;23.346;2024-03-02T06:54:40;41.90;;;16.47;;
77287;SDS011;66345;42.694;23.346;2024-03-02T06:57:05;40.13;;;16.90;;
77287;SDS011;66345;42.694;23.346;2024-03-02T06:59:34;37.93;;;16.77;;
77287;SDS011;66345;42.694;23.346;2024-03-02T07:01:59;42.80;;;16.83;;
77287;SDS011;66345;42.694;23.346;2024-03-02T07:04:25;39.20;;;16.35;;
77287;SDS011;66345;42.694;23.346;2024-03-02T07:06:51;36.93;;;16.17;;
77287;SDS011;66345;42.694;23.346;2024-03-02T07:09:17;39.90;;;16.02;;
77287;SDS011;66345;42.694;23.346;2024-03-02T07:11:42;38.20;;;15.38;;
77287;SDS011;66345;42.694;23.346;2024-03-02T07:14:08;37.07;;;15.40;;
77287;SDS011;66345;42.694;23.346;2024-03-02T07:16:33;37.15;;;14.90;;
77287;SDS011;66345;42.694;23.346;2024-03-02T07:18:59;37.67;;;15.40;;
77287;SDS011;66345;42.694;23.346;2024-03-02T07:21:26;38.13;;;15.85;;
77287;SDS011;66345;42.694;23.346;2024-03-02T07:23:52;42.60;;;16.25;;
77287;SDS011;66345;42.694;23.346;2024-03-02T07:26:18;35.57;;;14.47;;
77287;SDS011;66345;42.694;23.346;2024-03-02T07:28:47;34.72;;;15.43;;
77287;SDS011;66345;42.694;23.346;2024-03-02T07:31:14;36.55;;;14.82;;
77287;SDS011;66345;42.694;23.346;2024-03-02T07:33:40;34.03;;;14.20;;
77287;SDS011;66345;42.694;23.346;2024-03-02T07:36:09;39.95;;;14.90;;
77287;SDS011;66345;42.694;23.346;2024-03-02T07:38:35;38.67;;;14.80;;
77287;SDS011;66345;42.694;23.346;2024-03-02T07:41:00;40.20;;;14.48;;
77287;SDS011;66345;42.694;23.346;2024-03-02T07:43:26;34.77;;;13.80;;
77287;SDS011;66345;42.694;23.346;2024-03-02T07:45:51;35.53;;;13.38;;
77287;SDS011;66345;42.694;23.346;2024-03-02T07:48:17;34.53;;;13.60;;
77287;SDS011;66345;42.694;23.346;2024-03-02T07:50:43;33.90;;;13.93;;
77287;SDS011;66345;42.694;23.346;2024-03-02T07:53:09;35.17;;;13.77;;
77287;SDS011;66345;42.694;23.346;2024-03-02T07:55:35;35.72;;;14.85;;
77287;SDS011;66345;42.694;23.346;2024-03-02T07:58:01;35.78;;;14.98;;
77287;SDS011;66345;42.694;23.346;2024-03-02T08:00:27;34.85;;;13.38;;
77287;SDS011;66345;42.694;23.346;2024-03-02T08:02:53;32.55;;;14.52;;
77287;SDS011;66345;42.694;23.346;2024-03-02T08:05:20;34.83;;;13.80;;
77287;SDS011;66345;42.694;23.346;2024-03-02T08:07:46;36.40;;;14.23;;
77287;SDS011;66345;42.694;23.346;2024-03-02T08:10:13;41.00;;;15.33;;
77287;SDS011;66345;42.694;23.346;2024-03-02T08:12:39;36.55;;;15.48;;
77287;SDS011;66345;42.694;23.346;2024-03-02T08:15:04;33.33;;;15.07;;
77287;SDS011;66345;42.694;23.346;2024-03-02T08:17:31;36.22;;;14.43;;
77287;SDS011;66345;42.694;23.346;2024-03-02T08:19:56;34.47;;;14.10;;
77287;SDS011;66345;42.694;23.346;2024-03-02T08:22:23;35.05;;;15.05;;
77287;SDS011;66345;42.694;23.346;2024-03-02T08:24:50;37.80;;;15.77;;
77287;SDS011;66345;42.694;23.346;2024-03-02T08:27:16;34.77;;;14.03;;
77287;SDS011;66345;42.694;23.346;2024-03-02T08:29:42;32.80;;;14.65;;
77287;SDS011;66345;42.694;23.346;2024-03-02T08:32:07;38.10;;;15.37;;
77287;SDS011;66345;42.694;23.346;2024-03-02T08:34:33;31.65;;;14.48;;
77287;SDS011;66345;42.694;23.346;2024-03-02T08:37:02;32.17;;;14.47;;
77287;SDS011;66345;42.694;23.346;2024-03-02T08:39:28;36.38;;;14.23;;
77287;SDS011;66345;42.694;23.346;2024-03-02T08:41:53;35.60;;;15.10;;
77287;SDS011;66345;42.694;23.346;2024-03-02T08:44:19;37.20;;;16.07;;
77287;SDS011;66345;42.694;23.346;2024-03-02T08:46:45;36.08;;;14.88;;
77287;SDS011;66345;42.694;23.346;2024-03-02T08:49:11;35.93;;;14.53;;
77287;SDS011;66345;42.694;23.346;2024-03-02T08:51:36;35.22;;;15.38;;
77287;SDS011;66345;42.694;23.346;2024-03-02T08:54:02;38.23;;;16.83;;
77287;SDS011;66345;42.694;23.346;2024-03-02T08:56:29;38.78;;;16.95;;
77287;SDS011;66345;42.694;23.346;2024-03-02T08:58:55;32.88;;;15.70;;
77287;SDS011;66345;42.694;23.346;2024-03-02T09:01:21;37.83;;;15.60;;
77287;SDS011;66345;42.694;23.346;2024-03-02T09:03:46;36.17;;;15.40;;
77287;SDS011;66345;42.694;23.346;2024-03-02T09:06:12;34.43;;;15.53;;
77287;SDS011;66345;42.694;23.346;2024-03-02T09:08:39;28.27;;;13.02;;
77287;SDS011;66345;42.694;23.346;2024-03-02T09:11:07;31.27;;;12.80;;
77287;SDS011;66345;42.694;23.346;2024-03-02T09:13:33;29.75;;;13.30;;
77287;SDS011;66345;42.694;23.346;2024-03-02T09:15:59;28.65;;;12.65;;
77287;SDS011;66345;42.694;23.346;2024-03-02T09:18:24;29.10;;;13.47;;
77287;SDS011;66345;42.694;23.346;2024-03-02T09:20:50;28.23;;;13.20;;
77287;SDS011;66345;42.694;23.346;2024-03-02T09:23:15;30.05;;;12.95;;
77287;SDS011;66345;42.694;23.346;2024-03-02T09:25:41;31.10;;;13.33;;
77287;SDS011;66345;42.694;23.346;2024-03-02T09:28:07;33.85;;;14.30;;
77287;SDS011;66345;42.694;23.346;2024-03-02T09:30:32;31.08;;;13.68;;
77287;SDS011;66345;42.694;23.346;2024-03-02T09:32:58;31.95;;;14.13;;
77287;SDS011;66345;42.694;23.346;2024-03-02T09:35:24;34.13;;;15.07;;
77287;SDS011;66345;42.694;23.346;2024-03-02T09:37:49;39.97;;;14.87;;
77287;SDS011;66345;42.694;23.346;2024-03-02T09:40:15;31.10;;;13.65;;
77287;SDS011;66345;42.694;23.346;2024-03-02T09:42:41;36.70;;;14.68;;
77287;SDS011;66345;42.694;23.346;2024-03-02T09:45:08;31.80;;;14.73;;
77287;SDS011;66345;42.694;23.346;2024-03-02T09:47:35;35.38;;;14.70;;
77287;SDS011;66345;42.694;23.346;2024-03-02T09:50:00;31.25;;;13.27;;
77287;SDS011;66345;42.694;23.346;2024-03-02T09:52:26;31.60;;;12.90;;
77287;SDS011;66345;42.694;23.346;2024-03-02T09:54:52;38.63;;;14.27;;
77287;SDS011;66345;42.694;23.346;2024-03-02T09:57:18;33.97;;;13.87;;
77287;SDS011;66345;42.694;23.346;2024-03-02T09:59:44;32.05;;;14.20;;
77287;SDS011;66345;42.694;23.346;2024-03-02T10:02:10;28.13;;;12.75;;
77287;SDS011;66345;42.694;23.346;2024-03-02T10:04:36;32.30;;;12.70;;
77287;SDS011;66345;42.694;23.346;2024-03-02T10:07:15;33.03;;;13.68;;
77287;SDS011;66345;42.694;23.346;2024-03-02T10:09:41;28.33;;;12.43;;
77287;SDS011;66345;42.694;23.346;2024-03-02T10:12:09;35.80;;;14.10;;
77287;SDS011;66345;42.694;23.346;2024-03-02T10:14:36;29.83;;;13.48;;
77287;SDS011;66345;42.694;23.346;2024-03-02T10:17:05;26.17;;;11.90;;
77287;SDS011;66345;42.694;23.346;2024-03-02T10:19:33;28.80;;;12.88;;
77287;SDS011;66345;42.694;23.346;2024-03-02T10:22:00;28.95;;;12.68;;
77287;SDS011;66345;42.694;23.346;2024-03-02T10:24:28;30.35;;;13.05;;
77287;SDS011;66345;42.694;23.346;2024-03-02T10:27:16;30.48;;;13.75;;
77287;SDS011;66345;42.694;23.346;2024-03-02T10:29:45;25.93;;;11.93;;
77287;SDS011;66345;42.694;23.346;2024-03-02T10:32:11;25.88;;;12.27;;
77287;SDS011;66345;42.694;23.346;2024-03-02T10:34:41;27.45;;;12.02;;
77287;SDS011;66345;42.694;23.346;2024-03-02T10:37:08;24.35;;;11.38;;
77287;SDS011;66345;42.694;23.346;2024-03-02T10:39:35;25.05;;;10.55;;
77287;SDS011;66345;42.694;23.346;2024-03-02T10:42:01;27.77;;;12.57;;
77287;SDS011;66345;42.694;23.346;2024-03-02T10:44:31;28.70;;;12.55;;
77287;SDS011;66345;42.694;23.346;2024-03-02T10:46:59;28.05;;;12.63;;
77287;SDS011;66345;42.694;23.346;2024-03-02T10:49:27;31.50;;;12.53;;
77287;SDS011;66345;42.694;23.346;2024-03-02T10:51:54;29.70;;;13.77;;
77287;SDS011;66345;42.694;23.346;2024-03-02T10:54:20;28.58;;;12.73;;
77287;SDS011;66345;42.694;23.346;2024-03-02T10:56:51;28.30;;;12.87;;
77287;SDS011;66345;42.694;23.346;2024-03-02T11:01:58;30.52;;;14.50;;
77287;SDS011;66345;42.694;23.346;2024-03-02T11:04:26;27.60;;;12.55;;
77287;SDS011;66345;42.694;23.346;2024-03-02T11:06:54;28.55;;;11.80;;
77287;SDS011;66345;42.694;23.346;2024-03-02T11:09:29;23.93;;;11.33;;
77287;SDS011;66345;42.694;23.346;2024-03-02T11:12:02;23.63;;;11.43;;
77287;SDS011;66345;42.694;23.346;2024-03-02T11:14:31;26.30;;;12.40;;
77287;SDS011;66345;42.694;23.346;2024-03-02T11:17:00;27.13;;;11.73;;
77287;SDS011;66345;42.694;23.346;2024-03-02T11:19:28;24.52;;;11.82;;
77287;SDS011;66345;42.694;23.346;2024-03-02T11:21:55;29.40;;;12.27;;
77287;SDS011;66345;42.694;23.346;2024-03-02T11:26:49;24.48;;;11.40;;
77287;SDS011;66345;42.694;23.346;2024-03-02T11:32:13;24.27;;;11.07;;
77287;SDS011;66345;42.694;23.346;2024-03-02T11:34:41;24.53;;;10.13;;
77287;SDS011;66345;42.694;23.346;2024-03-02T11:37:12;24.80;;;10.90;;
77287;SDS011;66345;42.694;23.346;2024-03-02T11:39:39;26.58;;;11.38;;
77287;SDS011;66345;42.694;23.346;2024-03-02T11:42:06;23.85;;;11.15;;
77287;SDS011;66345;42.694;23.346;2024-03-02T11:44:34;24.83;;;10.93;;
77287;SDS011;66345;42.694;23.346;2024-03-02T11:47:00;27.93;;;11.90;;
77287;SDS011;66345;42.694;23.346;2024-03-02T11:49:44;25.63;;;10.65;;
77287;SDS011;66345;42.694;23.346;2024-03-02T11:52:19;27.38;;;11.15;;
77287;SDS011;66345;42.694;23.346;2024-03-02T11:54:46;23.10;;;11.20;;
77287;SDS011;66345;42.694;23.346;2024-03-02T11:57:22;23.05;;;9.93;;
77287;SDS011;66345;42.694;23.346;2024-03-02T11:59:48;26.20;;;11.80;;
77287;SDS011;66345;42.694;23.346;2024-03-02T12:02:18;26.90;;;11.13;;
77287;SDS011;66345;42.694;23.346;2024-03-02T12:04:45;23.65;;;10.60;;
77287;SDS011;66345;42.694;23.346;2024-03-02T12:07:18;25.08;;;11.30;;
77287;SDS011;66345;42.694;23.346;2024-03-02T12:09:48;25.85;;;10.82;;
77287;SDS011;66345;42.694;23.346;2024-03-02T12:12:13;24.87;;;10.67;;
77287;SDS011;66345;42.694;23.346;2024-03-02T12:14:49;27.52;;;11.38;;
77287;SDS011;66345;42.694;23.346;2024-03-02T12:17:16;21.08;;;9.98;;
77287;SDS011;66345;42.694;23.346;2024-03-02T12:19:42;22.40;;;10.37;;
77287;SDS011;66345;42.694;23.346;2024-03-02T12:22:07;22.52;;;10.48;;
77287;SDS011;66345;42.694;23.346;2024-03-02T12:24:33;22.20;;;10.27;;
77287;SDS011;66345;42.694;23.346;2024-03-02T12:26:59;20.83;;;9.87;;
77287;SDS011;66345;42.694;23.346;2024-03-02T12:29:24;22.05;;;10.23;;
77287;SDS011;66345;42.694;23.346;2024-03-02T12:31:51;22.35;;;10.05;;
77287;SDS011;66345;42.694;23.346;2024-03-02T12:34:17;20.50;;;9.63;;
77287;SDS011;66345;42.694;23.346;2024-03-02T12:36:44;20.98;;;10.45;;
77287;SDS011;66345;42.694;23.346;2024-03-02T12:39:13;21.67;;;10.55;;
77287;SDS011;66345;42.694;23.346;2024-03-02T12:41:39;20.20;;;9.70;;
77287;SDS011;66345;42.694;23.346;2024-03-02T12:44:05;21.50;;;9.70;;
77287;SDS011;66345;42.694;23.346;2024-03-02T12:46:31;22.77;;;10.20;;
77287;SDS011;66345;42.694;23.346;2024-03-02T12:49:05;22.92;;;10.40;;
77287;SDS011;66345;42.694;23.346;2024-03-02T12:51:36;21.05;;;9.90;;
77287;SDS011;66345;42.694;23.346;2024-03-02T12:54:02;22.10;;;9.73;;
77287;SDS011;66345;42.694;23.346;2024-03-02T12:56:30;21.90;;;9.67;;
77287;SDS011;66345;42.694;23.346;2024-03-02T12:58:57;20.25;;;9.80;;
77287;SDS011;66345;42.694;23.346;2024-03-02T13:01:24;19.55;;;9.60;;
77287;SDS011;66345;42.694;23.346;2024-03-02T13:03:49;18.97;;;9.07;;
77287;SDS011;66345;42.694;23.346;2024-03-02T13:06:20;19.77;;;9.70;;
77287;SDS011;66345;42.694;23.346;2024-03-02T13:08:46;20.88;;;9.90;;
77287;SDS011;66345;42.694;23.346;2024-03-02T13:11:13;21.13;;;10.27;;
77287;SDS011;66345;42.694;23.346;2024-03-02T13:13:39;20.03;;;9.83;;
77287;SDS011;66345;42.694;23.346;2024-03-02T13:16:08;22.27;;;10.55;;
77287;SDS011;66345;42.694;23.346;2024-03-02T13:18:35;21.08;;;10.35;;
77287;SDS011;66345;42.694;23.346;2024-03-02T13:21:01;22.45;;;9.98;;
77287;SDS011;66345;42.694;23.346;2024-03-02T13:23:26;22.47;;;10.23;;
77287;SDS011;66345;42.694;23.346;2024-03-02T13:25:54;17.30;;;9.48;;
77287;SDS011;66345;42.694;23.346;2024-03-02T13:28:19;20.40;;;9.87;;
77287;SDS011;66345;42.694;23.346;2024-03-02T13:30:45;21.88;;;10.50;;
77287;SDS011;66345;42.694;23.346;2024-03-02T13:33:10;19.37;;;9.47;;
77287;SDS011;66345;42.694;23.346;2024-03-02T13:35:36;19.63;;;10.10;;
77287;SDS011;66345;42.694;23.346;2024-03-02T13:38:01;20.67;;;9.88;;
77287;SDS011;66345;42.694;23.346;2024-03-02T13:40:27;21.43;;;10.13;;
77287;SDS011;66345;42.694;23.346;2024-03-02T13:42:54;19.42;;;9.60;;
77287;SDS011;66345;42.694;23.346;2024-03-02T13:45:19;19.73;;;10.33;;
77287;SDS011;66345;42.694;23.346;2024-03-02T13:47:45;21.38;;;10.35;;
77287;SDS011;66345;42.694;23.346;2024-03-02T13:50:10;21.27;;;10.60;;
77287;SDS011;66345;42.694;23.346;2024-03-02T13:52:36;15.83;;;9.20;;
77287;SDS011;66345;42.694;23.346;2024-03-02T13:55:01;19.70;;;9.70;;
77287;SDS011;66345;42.694;23.346;2024-03-02T13:57:27;18.67;;;9.43;;
77287;SDS011;66345;42.694;23.346;2024-03-02T13:59:53;19.07;;;9.23;;
77287;SDS011;66345;42.694;23.346;2024-03-02T14:02:19;18.52;;;9.20;;
77287;SDS011;66345;42.694;23.346;2024-03-02T14:04:45;20.50;;;10.43;;
77287;SDS011;66345;42.694;23.346;2024-03-02T14:07:13;20.13;;;9.50;;
77287;SDS011;66345;42.694;23.346;2024-03-02T14:09:39;21.33;;;9.77;;
77287;SDS011;66345;42.694;23.346;2024-03-02T14:12:04;19.10;;;9.47;;
77287;SDS011;66345;42.694;23.346;2024-03-02T14:14:31;20.38;;;9.30;;
77287;SDS011;66345;42.694;23.346;2024-03-02T14:16:56;20.95;;;10.30;;
77287;SDS011;66345;42.694;23.346;2024-03-02T14:19:29;20.87;;;10.43;;
77287;SDS011;66345;42.694;23.346;2024-03-02T14:21:55;21.50;;;11.07;;